Bay Bulls, Canada
Current Conditions -  °F | °C
As of 4:00 PM on Thursday 30 Oct 2014 (Local Time) from CYYT Reporting Station
Rain Showers Rain Showers  
Wind Chill: 59°   Ceiling: 1400
Heat Index: 59°   Visibility: 15mi
Dew Point: 57°   Wind: 24mph
Humidity: 94%   Direction: 230°SW
Pressure: 29.69"   Gusts: 35mph
Location:  47.33°N, 52.83°W
Report Text: CYYT 301800Z 23021G30KT 15SM -SHRA OVC014 15/14 A2969 RMK SC8 SLP056 DENSITY ALT 800FT
Loading
Personal Weather Stations






























Interactive Weather Map
Tropical Storm Tracking
New forecast layout! Learn more

10-Day Weather Forecast

Advertisements
Track Severe Weather on mobile